createdAt,value
2023-05-21T06:35:39.272Z,16.50
2023-05-21T06:38:08.414Z,16.20
2023-05-21T06:40:35.820Z,16.30
2023-05-21T06:43:05.227Z,16.40
2023-05-21T06:45:51.625Z,16.50
2023-05-21T06:48:37.544Z,16.60
2023-05-21T06:51:04.913Z,16.80
2023-05-21T06:53:31.973Z,16.90
2023-05-21T06:55:58.996Z,17.00
2023-05-21T06:58:37.178Z,17.10
2023-05-21T07:01:04.916Z,17.20
2023-05-21T07:03:32.058Z,17.20
2023-05-21T07:05:59.178Z,17.30
2023-05-21T07:08:26.415Z,17.30
2023-05-21T07:10:53.803Z,17.30
2023-05-21T07:13:21.741Z,17.40
2023-05-21T07:15:48.697Z,17.50
2023-05-21T07:18:16.850Z,17.40
2023-05-21T07:20:44.816Z,17.50
2023-05-21T07:23:17.615Z,17.50
2023-05-21T07:25:46.300Z,17.50
2023-05-21T07:28:14.631Z,17.60
2023-05-21T07:30:41.608Z,17.70
2023-05-21T07:33:13.798Z,17.80
2023-05-21T07:35:41.032Z,17.70
2023-05-21T07:38:08.248Z,17.60
2023-05-21T07:40:35.157Z,17.70
2023-05-21T07:43:03.350Z,17.90
2023-05-21T07:45:31.468Z,18.00
2023-05-21T07:47:58.602Z,18.10
2023-05-21T07:50:26.890Z,18.10
2023-05-21T07:52:54.705Z,18.10
2023-05-21T07:55:21.856Z,18.10
2023-05-21T07:57:49.505Z,18.20
2023-05-21T08:00:19.126Z,18.20
2023-05-21T08:02:52.843Z,18.20
2023-05-21T08:05:21.455Z,18.40
2023-05-21T08:07:48.925Z,18.40
2023-05-21T08:10:18.485Z,18.50
2023-05-21T08:12:46.574Z,18.50
2023-05-21T08:15:13.703Z,18.50
2023-05-21T08:17:44.686Z,18.70
2023-05-21T08:20:13.488Z,18.80
2023-05-21T08:22:41.433Z,18.90
2023-05-21T08:25:09.480Z,19.10
2023-05-21T08:27:36.515Z,19.20
2023-05-21T08:30:04.973Z,19.20
2023-05-21T08:32:32.469Z,19.30
2023-05-21T08:35:00.811Z,19.20
2023-05-21T08:37:56.212Z,19.30
2023-05-21T08:40:55.940Z,19.40
2023-05-21T08:43:25.395Z,19.50
2023-05-21T08:45:59.129Z,19.60
2023-05-21T08:48:31.441Z,19.70
2023-05-21T08:51:00.188Z,19.80
2023-05-21T08:53:33.638Z,19.90
2023-05-21T08:56:01.950Z,19.90
2023-05-21T08:58:45.560Z,19.90
2023-05-21T09:01:14.739Z,20.00
2023-05-21T09:03:47.106Z,20.00
2023-05-21T09:06:14.574Z,20.10
2023-05-21T09:08:48.482Z,20.20
2023-05-21T09:11:24.556Z,20.20
2023-05-21T09:13:57.283Z,20.20
2023-05-21T09:16:31.713Z,20.20
2023-05-21T09:18:59.041Z,20.20
2023-05-21T09:21:33.391Z,20.30
2023-05-21T09:24:09.999Z,20.40
2023-05-21T09:26:37.910Z,20.60
2023-05-21T09:29:06.714Z,20.60
2023-05-21T09:31:33.637Z,20.60
2023-05-21T09:34:01.379Z,20.80
2023-05-21T09:36:29.709Z,20.80
2023-05-21T09:38:58.458Z,20.80
2023-05-21T09:41:33.709Z,20.80
2023-05-21T09:44:04.913Z,20.90
2023-05-21T09:46:40.488Z,20.90
2023-05-21T09:49:23.561Z,21.00
2023-05-21T09:51:50.893Z,21.00
2023-05-21T09:54:17.923Z,21.20
2023-05-21T09:56:44.993Z,21.20
2023-05-21T09:59:11.969Z,21.30
2023-05-21T10:01:38.905Z,21.40
2023-05-21T10:04:10.177Z,21.40
2023-05-21T10:06:47.874Z,21.40
2023-05-21T10:09:18.766Z,21.50
2023-05-21T10:11:46.761Z,21.50
2023-05-21T10:14:20.146Z,21.60
2023-05-21T10:16:48.203Z,21.70
2023-05-21T10:19:16.829Z,21.80
2023-05-21T10:21:45.173Z,21.80
2023-05-21T10:24:13.006Z,21.90
2023-05-21T10:26:41.549Z,21.90
2023-05-21T10:29:09.077Z,21.90
2023-05-21T10:31:38.654Z,22.00
2023-05-21T10:34:06.458Z,22.00
2023-05-21T10:36:34.316Z,22.00
2023-05-21T10:39:03.133Z,22.00
2023-05-21T10:41:40.686Z,22.00
2023-05-21T10:44:44.328Z,22.00
2023-05-21T10:47:30.088Z,22.00
2023-05-21T10:50:27.755Z,21.90
2023-05-21T10:53:40.714Z,21.90
2023-05-21T10:56:30.785Z,21.90
2023-05-21T10:59:23.749Z,22.00
2023-05-21T11:01:56.230Z,22.00
2023-05-21T11:04:26.882Z,21.90
2023-05-21T11:06:53.819Z,21.90
2023-05-21T11:09:20.919Z,22.00
2023-05-21T11:11:52.814Z,22.00
2023-05-21T11:14:31.618Z,22.10
2023-05-21T11:17:03.578Z,22.10
2023-05-21T11:19:38.315Z,22.20
2023-05-21T11:22:26.552Z,22.30
2023-05-21T11:24:55.240Z,22.30
2023-05-21T11:27:39.714Z,22.40
2023-05-21T11:30:19.517Z,22.30
2023-05-21T11:33:08.586Z,22.30
2023-05-21T11:35:54.370Z,22.40
2023-05-21T11:38:21.539Z,22.40
2023-05-21T11:40:55.440Z,22.50
2023-05-21T11:43:22.628Z,22.50
2023-05-21T11:45:52.776Z,22.60
2023-05-21T11:48:26.713Z,22.70
2023-05-21T11:50:54.763Z,22.70
2023-05-21T11:53:21.985Z,22.80
2023-05-21T11:55:49.042Z,22.80
2023-05-21T11:58:19.402Z,22.80
2023-05-21T12:00:46.411Z,22.90
2023-05-21T12:03:14.746Z,23.00
2023-05-21T12:05:49.413Z,23.00
2023-05-21T12:08:25.880Z,23.10
2023-05-21T12:11:00.271Z,23.10
2023-05-21T12:13:28.139Z,23.00
2023-05-21T12:15:55.293Z,23.00
2023-05-21T12:18:22.410Z,23.00
2023-05-21T12:20:51.997Z,23.10
2023-05-21T12:23:23.741Z,23.20
2023-05-21T12:25:52.251Z,23.20
2023-05-21T12:28:22.190Z,23.10
2023-05-21T12:30:49.139Z,23.10
2023-05-21T12:33:18.054Z,23.10
2023-05-21T12:35:50.334Z,23.20
2023-05-21T12:38:17.501Z,23.30
2023-05-21T12:40:45.722Z,23.50
2023-05-21T12:43:13.119Z,23.40
2023-05-21T12:45:40.631Z,23.40
2023-05-21T12:48:07.982Z,23.50
2023-05-21T12:50:36.087Z,23.50
2023-05-21T12:53:03.698Z,23.60
2023-05-21T12:55:31.600Z,23.60
2023-05-21T12:58:07.967Z,23.70
2023-05-21T13:00:35.301Z,23.80
2023-05-21T13:03:04.573Z,23.80
2023-05-21T13:05:31.797Z,23.80
2023-05-21T13:07:58.834Z,23.80
2023-05-21T13:10:25.702Z,23.90
2023-05-21T13:12:52.633Z,23.90
2023-05-21T13:15:19.812Z,23.80
2023-05-21T13:17:49.148Z,23.70
2023-05-21T13:20:21.194Z,23.70
2023-05-21T13:22:50.904Z,23.80
2023-05-21T13:25:22.295Z,23.70
2023-05-21T13:27:51.355Z,23.70
2023-05-21T13:30:19.447Z,23.80
2023-05-21T13:32:46.578Z,23.90
2023-05-21T13:35:15.279Z,23.90
2023-05-21T13:37:42.540Z,23.90
2023-05-21T13:40:11.472Z,23.90
2023-05-21T13:42:38.974Z,23.90
2023-05-21T13:45:11.191Z,23.90
2023-05-21T13:47:40.502Z,23.90
2023-05-21T13:50:09.218Z,23.90
2023-05-21T13:52:38.086Z,23.80
2023-05-21T13:55:05.475Z,23.80
2023-05-21T13:57:32.640Z,23.80
2023-05-21T13:59:59.875Z,23.80
2023-05-21T14:02:27.164Z,23.70
2023-05-21T14:04:54.228Z,23.70
2023-05-21T14:07:22.047Z,23.70
2023-05-21T14:09:49.069Z,23.80
2023-05-21T14:12:17.023Z,23.90
2023-05-21T14:14:44.439Z,23.90
2023-05-21T14:17:11.511Z,24.00
2023-05-21T14:19:38.442Z,24.00
2023-05-21T14:22:05.524Z,24.10
2023-05-21T14:24:32.555Z,24.10
2023-05-21T14:26:59.498Z,24.00
2023-05-21T14:29:26.464Z,24.00
2023-05-21T14:31:53.589Z,24.00
2023-05-21T14:34:20.599Z,24.00
2023-05-21T14:36:47.476Z,24.10
2023-05-21T14:39:14.493Z,24.20
2023-05-21T14:41:41.709Z,24.30
2023-05-21T14:44:08.641Z,24.40
2023-05-21T14:46:36.886Z,24.40
2023-05-21T14:49:04.043Z,24.40
2023-05-21T14:51:31.766Z,24.40
2023-05-21T14:53:59.064Z,24.40
2023-05-21T14:56:27.852Z,24.30
2023-05-21T14:58:55.510Z,24.30
2023-05-21T15:01:22.879Z,24.40
2023-05-21T15:03:50.061Z,24.50
2023-05-21T15:06:17.229Z,24.60
2023-05-21T15:08:44.236Z,24.60
2023-05-21T15:11:11.617Z,24.70
2023-05-21T15:13:39.219Z,24.80
2023-05-21T15:16:06.518Z,24.90
2023-05-21T15:18:33.706Z,25.10
2023-05-21T15:21:00.929Z,25.10
2023-05-21T15:23:28.073Z,25.30
2023-05-21T15:25:55.502Z,25.30
2023-05-21T15:28:23.151Z,25.30
2023-05-21T15:30:50.394Z,25.40
2023-05-21T15:33:17.642Z,25.50
2023-05-21T15:35:52.886Z,25.50
2023-05-21T15:38:21.822Z,25.50
2023-05-21T15:40:50.997Z,25.70
2023-05-21T15:43:20.758Z,25.70
2023-05-21T15:45:53.496Z,25.60
2023-05-21T15:48:27.816Z,25.60
2023-05-21T15:50:59.363Z,25.50
2023-05-21T15:53:27.455Z,25.50
2023-05-21T15:55:57.710Z,25.60
2023-05-21T15:58:28.572Z,25.70
2023-05-21T16:01:02.193Z,25.70
2023-05-21T16:03:31.326Z,25.70
2023-05-21T16:06:03.136Z,25.90
2023-05-21T16:08:38.116Z,25.90
2023-05-21T16:11:14.046Z,26.00
2023-05-21T16:13:44.010Z,26.10
2023-05-21T16:16:11.378Z,26.20
2023-05-21T16:18:43.385Z,26.40
2023-05-21T16:21:18.520Z,26.50
2023-05-21T16:23:47.161Z,26.60
2023-05-21T16:26:15.536Z,26.70
2023-05-21T16:28:45.928Z,27.00
2023-05-21T16:31:19.296Z,27.10
2023-05-21T16:33:54.991Z,27.10
2023-05-21T16:36:28.183Z,27.00
2023-05-21T16:39:01.628Z,27.00
2023-05-21T16:41:33.012Z,27.10
2023-05-21T16:44:01.228Z,27.20
2023-05-21T16:46:30.425Z,27.40
2023-05-21T16:48:58.685Z,27.40
2023-05-21T16:51:31.463Z,27.50
2023-05-21T16:54:00.685Z,27.30
2023-05-21T16:56:28.498Z,27.20
2023-05-21T16:59:00.685Z,27.20
2023-05-21T17:01:31.277Z,27.10
2023-05-21T17:04:00.298Z,26.90
2023-05-21T17:06:28.270Z,26.90
2023-05-21T17:08:55.404Z,26.80
2023-05-21T17:11:22.376Z,26.80
2023-05-21T17:13:49.306Z,26.70
2023-05-21T17:16:16.291Z,26.60
2023-05-21T17:18:43.264Z,26.50
2023-05-21T17:21:10.739Z,26.40
2023-05-21T17:23:37.688Z,26.20
2023-05-21T17:26:06.993Z,26.10
2023-05-21T17:28:34.049Z,26.10
2023-05-21T17:31:04.088Z,26.10
2023-05-21T17:33:31.497Z,26.00
2023-05-21T17:35:58.602Z,25.90
2023-05-21T17:38:25.612Z,25.90
2023-05-21T17:40:53.157Z,25.80
2023-05-21T17:43:20.084Z,25.70
2023-05-21T17:45:47.002Z,25.70
2023-05-21T17:48:13.911Z,25.70
2023-05-21T17:50:40.971Z,25.70
2023-05-21T17:53:07.852Z,25.70
2023-05-21T17:55:37.579Z,25.60
2023-05-21T17:58:05.689Z,25.60
2023-05-21T18:00:32.700Z,25.50
2023-05-21T18:02:59.656Z,25.40
2023-05-21T18:05:26.579Z,25.30
2023-05-21T18:07:55.806Z,25.20
2023-05-21T18:10:22.701Z,25.20
2023-05-21T18:12:49.725Z,25.10
2023-05-21T18:15:16.816Z,25.00
2023-05-21T18:17:44.139Z,24.90
2023-05-21T18:20:11.981Z,24.80
2023-05-21T18:22:38.920Z,24.60
2023-05-21T18:25:06.495Z,24.50
2023-05-21T18:27:33.323Z,24.30
2023-05-21T18:30:05.026Z,24.20
2023-05-21T18:32:33.307Z,24.10
2023-05-21T18:35:00.205Z,24.00
2023-05-21T18:37:27.383Z,23.90
2023-05-21T18:39:54.282Z,23.80
2023-05-21T18:42:21.214Z,23.70
2023-05-21T18:44:51.175Z,23.50
2023-05-21T18:47:18.224Z,23.50
2023-05-21T18:49:45.127Z,23.40
2023-05-21T18:52:12.062Z,23.30
2023-05-21T18:54:38.902Z,23.20
2023-05-21T18:57:06.080Z,23.20
2023-05-21T18:59:32.905Z,23.10
2023-05-21T19:01:59.802Z,23.20
2023-05-21T19:04:27.377Z,23.10
2023-05-21T19:06:54.258Z,23.00
2023-05-21T19:09:21.358Z,22.90
2023-05-21T19:11:48.410Z,22.90
2023-05-21T19:14:15.260Z,22.80
2023-05-21T19:16:42.215Z,22.80
2023-05-21T19:19:09.212Z,22.80
2023-05-21T19:21:36.607Z,22.70
2023-05-21T19:24:05.626Z,22.70
2023-05-21T19:26:33.154Z,22.60
2023-05-21T19:28:59.990Z,22.50
2023-05-21T19:31:26.915Z,22.50
2023-05-21T19:33:53.973Z,22.30
2023-05-21T19:36:22.294Z,22.20
2023-05-21T19:38:50.400Z,22.10
2023-05-21T19:41:18.048Z,22.10
2023-05-21T19:43:45.487Z,22.00
2023-05-21T19:46:12.655Z,21.80
2023-05-21T19:48:39.746Z,21.70
2023-05-21T19:51:06.682Z,21.70
2023-05-21T19:53:33.634Z,21.60
2023-05-21T19:56:00.580Z,21.50
2023-05-21T19:58:29.550Z,21.50
2023-05-21T20:00:59.246Z,21.40
2023-05-21T20:03:27.146Z,21.40
2023-05-21T20:05:54.704Z,21.20
2023-05-21T20:08:22.214Z,21.10
2023-05-21T20:10:51.716Z,21.10
2023-05-21T20:13:19.304Z,21.20
2023-05-21T20:15:47.838Z,21.10
2023-05-21T20:18:15.644Z,21.00
2023-05-21T20:20:43.381Z,20.90
2023-05-21T20:23:10.471Z,20.90
2023-05-21T20:25:37.380Z,20.80
2023-05-21T20:28:05.420Z,20.80
2023-05-21T20:30:33.931Z,20.70
2023-05-21T20:33:02.466Z,20.70
2023-05-21T20:35:30.114Z,20.60
2023-05-21T20:37:57.349Z,20.60
2023-05-21T20:40:24.339Z,20.60
2023-05-21T20:42:53.622Z,20.50
2023-05-21T20:45:21.995Z,20.40
2023-05-21T20:47:49.917Z,20.40
2023-05-21T20:50:25.810Z,20.30
2023-05-21T20:52:52.865Z,20.20
2023-05-21T20:55:20.926Z,20.20
2023-05-21T20:57:47.855Z,20.10
2023-05-21T21:00:16.192Z,20.00
2023-05-21T21:02:44.095Z,19.90
2023-05-21T21:05:11.443Z,19.90
2023-05-21T21:07:38.654Z,19.80
2023-05-21T21:10:06.008Z,19.80
2023-05-21T21:12:32.921Z,19.80
2023-05-21T21:14:59.804Z,19.70
2023-05-21T21:17:26.721Z,19.60
2023-05-21T21:19:53.744Z,19.50
2023-05-21T21:22:21.053Z,19.60
2023-05-21T21:24:48.175Z,19.50
2023-05-21T21:27:15.532Z,19.50
2023-05-21T21:29:43.516Z,19.40
2023-05-21T21:32:10.486Z,19.40
2023-05-21T21:34:37.342Z,19.40
2023-05-21T21:37:04.571Z,19.30
2023-05-21T21:39:31.457Z,19.30
2023-05-21T21:41:58.446Z,19.30
2023-05-21T21:44:25.376Z,19.20
2023-05-21T21:46:52.236Z,19.10
2023-05-21T21:49:19.305Z,19.10
2023-05-21T21:51:46.303Z,19.10
2023-05-21T21:54:13.186Z,19.00
2023-05-21T21:56:40.102Z,18.90
2023-05-21T21:59:06.962Z,18.80
2023-05-21T22:01:34.083Z,18.80
2023-05-21T22:04:01.149Z,18.70
2023-05-21T22:06:28.642Z,18.80
2023-05-21T22:08:55.756Z,18.90
2023-05-21T22:11:22.942Z,18.70
2023-05-21T22:13:49.815Z,18.60
2023-05-21T22:16:16.728Z,18.60
2023-05-21T22:18:43.767Z,18.50
2023-05-21T22:21:14.279Z,18.50
2023-05-21T22:23:41.445Z,18.50
2023-05-21T22:26:09.393Z,18.40
2023-05-21T22:28:36.793Z,18.30
2023-05-21T22:31:03.798Z,18.30
2023-05-21T22:33:30.797Z,18.20
2023-05-21T22:35:58.161Z,18.20
2023-05-21T22:38:25.808Z,18.20
2023-05-21T22:40:52.709Z,18.10
2023-05-21T22:43:19.673Z,18.20
2023-05-21T22:45:46.484Z,18.10
2023-05-21T22:48:14.324Z,18.10
2023-05-21T22:50:41.504Z,18.10
2023-05-21T22:53:08.615Z,18.10
2023-05-21T22:55:35.518Z,18.00
2023-05-21T22:58:02.508Z,18.00
2023-05-21T23:00:29.610Z,18.00
2023-05-21T23:02:56.630Z,18.00
2023-05-21T23:05:23.573Z,18.00
2023-05-21T23:07:50.553Z,17.90
2023-05-21T23:10:17.492Z,17.90
2023-05-21T23:12:44.380Z,17.80
2023-05-21T23:15:11.787Z,17.80
2023-05-21T23:17:38.977Z,17.80
2023-05-21T23:20:07.269Z,17.70
2023-05-21T23:22:34.797Z,17.80
2023-05-21T23:25:02.098Z,17.70
2023-05-21T23:27:29.331Z,17.70
2023-05-21T23:29:56.431Z,17.60
2023-05-21T23:32:23.867Z,17.50
2023-05-21T23:34:50.921Z,17.60
2023-05-21T23:37:17.938Z,17.50
2023-05-21T23:39:49.365Z,17.50
2023-05-21T23:42:17.330Z,17.40
2023-05-21T23:44:44.461Z,17.30
2023-05-21T23:47:11.390Z,17.30
2023-05-21T23:49:38.908Z,17.30
2023-05-21T23:52:06.470Z,17.30
2023-05-21T23:54:33.352Z,17.30
2023-05-21T23:57:00.224Z,17.20
2023-05-21T23:59:27.038Z,17.10
